sensor_id;sensor_type;location;lat;lon;timestamp;temperature;humidity
65044;DHT22;51617;48.158;16.464;2023-09-08T00:00:29;17.90;96.70
65044;DHT22;51617;48.158;16.464;2023-09-08T00:02:55;17.80;96.80
65044;DHT22;51617;48.158;16.464;2023-09-08T00:05:21;17.80;96.70
65044;DHT22;51617;48.158;16.464;2023-09-08T00:07:46;17.90;96.60
65044;DHT22;51617;48.158;16.464;2023-09-08T00:10:12;18.00;96.50
65044;DHT22;51617;48.158;16.464;2023-09-08T00:12:37;18.00;96.30
65044;DHT22;51617;48.158;16.464;2023-09-08T00:15:03;18.10;96.30
65044;DHT22;51617;48.158;16.464;2023-09-08T00:17:29;18.10;96.20
65044;DHT22;51617;48.158;16.464;2023-09-08T00:19:56;18.10;96.30
65044;DHT22;51617;48.158;16.464;2023-09-08T00:22:22;18.00;96.00
65044;DHT22;51617;48.158;16.464;2023-09-08T00:24:47;17.90;96.00
65044;DHT22;51617;48.158;16.464;2023-09-08T00:27:13;17.80;96.30
65044;DHT22;51617;48.158;16.464;2023-09-08T00:29:39;17.80;96.60
65044;DHT22;51617;48.158;16.464;2023-09-08T00:32:04;17.70;96.60
65044;DHT22;51617;48.158;16.464;2023-09-08T00:34:30;17.60;96.60
65044;DHT22;51617;48.158;16.464;2023-09-08T00:36:56;17.50;96.70
65044;DHT22;51617;48.158;16.464;2023-09-08T00:39:21;17.40;97.10
65044;DHT22;51617;48.158;16.464;2023-09-08T00:41:47;17.50;97.30
65044;DHT22;51617;48.158;16.464;2023-09-08T00:44:12;17.50;97.20
65044;DHT22;51617;48.158;16.464;2023-09-08T00:46:39;17.60;97.20
65044;DHT22;51617;48.158;16.464;2023-09-08T00:49:04;17.70;97.30
65044;DHT22;51617;48.158;16.464;2023-09-08T00:51:30;17.70;97.10
65044;DHT22;51617;48.158;16.464;2023-09-08T00:53:56;17.60;97.10
65044;DHT22;51617;48.158;16.464;2023-09-08T00:56:22;17.60;97.40
65044;DHT22;51617;48.158;16.464;2023-09-08T00:58:47;17.60;97.10
65044;DHT22;51617;48.158;16.464;2023-09-08T01:01:13;17.50;97.30
65044;DHT22;51617;48.158;16.464;2023-09-08T01:03:38;17.50;97.50
65044;DHT22;51617;48.158;16.464;2023-09-08T01:06:04;17.50;97.50
65044;DHT22;51617;48.158;16.464;2023-09-08T01:08:29;17.40;97.40
65044;DHT22;51617;48.158;16.464;2023-09-08T01:10:55;17.20;97.40
65044;DHT22;51617;48.158;16.464;2023-09-08T01:13:21;17.10;97.80
65044;DHT22;51617;48.158;16.464;2023-09-08T01:15:47;17.10;97.90
65044;DHT22;51617;48.158;16.464;2023-09-08T01:18:13;17.10;98.10
65044;DHT22;51617;48.158;16.464;2023-09-08T01:23:28;17.10;98.30
65044;DHT22;51617;48.158;16.464;2023-09-08T01:28:21;17.10;98.30
65044;DHT22;51617;48.158;16.464;2023-09-08T01:30:49;17.10;98.20
65044;DHT22;51617;48.158;16.464;2023-09-08T01:33:15;17.10;98.20
65044;DHT22;51617;48.158;16.464;2023-09-08T01:35:40;17.00;98.30
65044;DHT22;51617;48.158;16.464;2023-09-08T01:38:06;17.00;98.10
65044;DHT22;51617;48.158;16.464;2023-09-08T01:40:31;17.00;98.30
65044;DHT22;51617;48.158;16.464;2023-09-08T01:42:57;16.90;98.20
65044;DHT22;51617;48.158;16.464;2023-09-08T01:45:22;16.80;98.40
65044;DHT22;51617;48.158;16.464;2023-09-08T01:47:48;16.80;98.60
65044;DHT22;51617;48.158;16.464;2023-09-08T01:50:13;16.80;98.70
65044;DHT22;51617;48.158;16.464;2023-09-08T01:52:40;16.80;98.90
65044;DHT22;51617;48.158;16.464;2023-09-08T01:55:06;16.80;98.90
65044;DHT22;51617;48.158;16.464;2023-09-08T01:57:32;16.80;98.90
65044;DHT22;51617;48.158;16.464;2023-09-08T01:59:58;16.90;98.80
65044;DHT22;51617;48.158;16.464;2023-09-08T02:02:23;16.90;98.80
65044;DHT22;51617;48.158;16.464;2023-09-08T02:04:49;16.90;98.80
65044;DHT22;51617;48.158;16.464;2023-09-08T02:07:14;16.80;98.60
65044;DHT22;51617;48.158;16.464;2023-09-08T02:09:40;16.70;98.50
65044;DHT22;51617;48.158;16.464;2023-09-08T02:12:07;16.70;98.60
65044;DHT22;51617;48.158;16.464;2023-09-08T02:14:32;16.70;98.80
65044;DHT22;51617;48.158;16.464;2023-09-08T02:16:58;16.70;98.90
65044;DHT22;51617;48.158;16.464;2023-09-08T02:19:23;16.60;99.10
65044;DHT22;51617;48.158;16.464;2023-09-08T02:21:49;16.70;99.20
65044;DHT22;51617;48.158;16.464;2023-09-08T02:24:14;16.70;99.30
65044;DHT22;51617;48.158;16.464;2023-09-08T02:26:40;16.70;99.30
65044;DHT22;51617;48.158;16.464;2023-09-08T02:29:06;16.80;99.20
65044;DHT22;51617;48.158;16.464;2023-09-08T02:31:31;16.70;99.10
65044;DHT22;51617;48.158;16.464;2023-09-08T02:33:57;16.80;99.20
65044;DHT22;51617;48.158;16.464;2023-09-08T02:36:22;16.80;99.20
65044;DHT22;51617;48.158;16.464;2023-09-08T02:38:51;16.80;99.10
65044;DHT22;51617;48.158;16.464;2023-09-08T02:41:17;16.60;98.70
65044;DHT22;51617;48.158;16.464;2023-09-08T02:43:42;16.40;98.70
65044;DHT22;51617;48.158;16.464;2023-09-08T02:46:08;16.30;99.00
65044;DHT22;51617;48.158;16.464;2023-09-08T02:48:34;16.30;99.20
65044;DHT22;51617;48.158;16.464;2023-09-08T02:51:00;16.30;99.40
65044;DHT22;51617;48.158;16.464;2023-09-08T02:53:25;16.20;99.60
65044;DHT22;51617;48.158;16.464;2023-09-08T02:55:54;16.10;99.80
65044;DHT22;51617;48.158;16.464;2023-09-08T02:58:19;16.10;99.80
65044;DHT22;51617;48.158;16.464;2023-09-08T03:00:45;16.00;99.90
65044;DHT22;51617;48.158;16.464;2023-09-08T03:03:10;16.00;99.90
65044;DHT22;51617;48.158;16.464;2023-09-08T03:05:36;16.10;99.90
65044;DHT22;51617;48.158;16.464;2023-09-08T03:08:02;16.10;99.90
65044;DHT22;51617;48.158;16.464;2023-09-08T03:10:28;16.20;99.90
65044;DHT22;51617;48.158;16.464;2023-09-08T03:12:54;16.10;99.90
65044;DHT22;51617;48.158;16.464;2023-09-08T03:15:19;16.10;99.90
65044;DHT22;51617;48.158;16.464;2023-09-08T03:17:45;16.90;99.90
65044;DHT22;51617;48.158;16.464;2023-09-08T03:20:10;15.90;99.90
65044;DHT22;51617;48.158;16.464;2023-09-08T03:22:36;15.80;99.90
65044;DHT22;51617;48.158;16.464;2023-09-08T03:25:02;15.80;99.90
65044;DHT22;51617;48.158;16.464;2023-09-08T03:27:28;15.70;99.90
65044;DHT22;51617;48.158;16.464;2023-09-08T03:29:53;15.70;99.90
65044;DHT22;51617;48.158;16.464;2023-09-08T03:32:19;15.70;99.90
65044;DHT22;51617;48.158;16.464;2023-09-08T03:34:45;15.60;99.90
65044;DHT22;51617;48.158;16.464;2023-09-08T03:37:10;15.60;99.90
65044;DHT22;51617;48.158;16.464;2023-09-08T03:39:36;15.70;99.90
65044;DHT22;51617;48.158;16.464;2023-09-08T03:42:01;15.80;99.90
65044;DHT22;51617;48.158;16.464;2023-09-08T03:44:27;15.80;99.90
65044;DHT22;51617;48.158;16.464;2023-09-08T03:46:53;15.80;99.90
65044;DHT22;51617;48.158;16.464;2023-09-08T03:49:18;15.90;99.90
65044;DHT22;51617;48.158;16.464;2023-09-08T03:51:45;15.90;99.90
65044;DHT22;51617;48.158;16.464;2023-09-08T03:54:10;15.80;99.90
65044;DHT22;51617;48.158;16.464;2023-09-08T03:56:36;15.90;99.90
65044;DHT22;51617;48.158;16.464;2023-09-08T03:59:01;15.90;99.90
65044;DHT22;51617;48.158;16.464;2023-09-08T04:01:27;15.90;99.90
65044;DHT22;51617;48.158;16.464;2023-09-08T04:03:53;15.80;99.90
65044;DHT22;51617;48.158;16.464;2023-09-08T04:06:18;15.70;99.90
65044;DHT22;51617;48.158;16.464;2023-09-08T04:08:44;15.60;99.90
65044;DHT22;51617;48.158;16.464;2023-09-08T04:11:09;15.50;99.90
65044;DHT22;51617;48.158;16.464;2023-09-08T04:13:34;15.50;99.90
65044;DHT22;51617;48.158;16.464;2023-09-08T04:16:00;15.50;99.90
65044;DHT22;51617;48.158;16.464;2023-09-08T04:18:26;15.50;99.90
65044;DHT22;51617;48.158;16.464;2023-09-08T04:20:51;15.60;99.90
65044;DHT22;51617;48.158;16.464;2023-09-08T04:23:17;15.60;99.90
65044;DHT22;51617;48.158;16.464;2023-09-08T04:25:42;15.70;99.90
65044;DHT22;51617;48.158;16.464;2023-09-08T04:28:08;15.70;99.90
65044;DHT22;51617;48.158;16.464;2023-09-08T04:30:33;15.70;99.90
65044;DHT22;51617;48.158;16.464;2023-09-08T04:32:59;15.60;99.90
65044;DHT22;51617;48.158;16.464;2023-09-08T04:35:24;15.50;99.90
65044;DHT22;51617;48.158;16.464;2023-09-08T04:37:50;15.50;99.90
65044;DHT22;51617;48.158;16.464;2023-09-08T04:40:15;15.50;99.90
65044;DHT22;51617;48.158;16.464;2023-09-08T04:42:41;15.60;99.90
65044;DHT22;51617;48.158;16.464;2023-09-08T04:45:06;15.70;99.90
65044;DHT22;51617;48.158;16.464;2023-09-08T04:47:32;15.60;99.90
65044;DHT22;51617;48.158;16.464;2023-09-08T04:49:58;15.70;99.90
65044;DHT22;51617;48.158;16.464;2023-09-08T04:52:23;15.70;99.90
65044;DHT22;51617;48.158;16.464;2023-09-08T04:54:49;15.70;99.90
65044;DHT22;51617;48.158;16.464;2023-09-08T04:57:14;15.80;99.90
65044;DHT22;51617;48.158;16.464;2023-09-08T04:59:40;15.80;99.90
65044;DHT22;51617;48.158;16.464;2023-09-08T05:02:05;15.90;99.90
65044;DHT22;51617;48.158;16.464;2023-09-08T05:04:31;15.80;99.90
65044;DHT22;51617;48.158;16.464;2023-09-08T05:06:56;15.90;99.90
65044;DHT22;51617;48.158;16.464;2023-09-08T05:09:22;16.00;99.90
65044;DHT22;51617;48.158;16.464;2023-09-08T05:11:47;16.10;99.90
65044;DHT22;51617;48.158;16.464;2023-09-08T05:14:13;16.20;99.90
65044;DHT22;51617;48.158;16.464;2023-09-08T05:16:38;16.30;99.90
65044;DHT22;51617;48.158;16.464;2023-09-08T05:19:15;16.40;99.90
65044;DHT22;51617;48.158;16.464;2023-09-08T05:21:40;16.50;99.90
65044;DHT22;51617;48.158;16.464;2023-09-08T05:24:07;16.60;99.90
65044;DHT22;51617;48.158;16.464;2023-09-08T05:26:33;16.60;99.90
65044;DHT22;51617;48.158;16.464;2023-09-08T05:28:58;16.70;99.90
65044;DHT22;51617;48.158;16.464;2023-09-08T05:31:24;16.80;99.90
65044;DHT22;51617;48.158;16.464;2023-09-08T05:33:50;16.90;99.90
65044;DHT22;51617;48.158;16.464;2023-09-08T05:36:15;16.80;99.90
65044;DHT22;51617;48.158;16.464;2023-09-08T05:38:41;16.90;99.90
65044;DHT22;51617;48.158;16.464;2023-09-08T05:41:07;17.00;99.90
65044;DHT22;51617;48.158;16.464;2023-09-08T05:43:32;17.10;99.90
65044;DHT22;51617;48.158;16.464;2023-09-08T05:45:58;17.20;99.90
65044;DHT22;51617;48.158;16.464;2023-09-08T05:48:23;17.30;99.90
65044;DHT22;51617;48.158;16.464;2023-09-08T05:50:49;17.40;99.60
65044;DHT22;51617;48.158;16.464;2023-09-08T05:53:14;17.50;99.40
65044;DHT22;51617;48.158;16.464;2023-09-08T05:55:40;17.60;99.40
65044;DHT22;51617;48.158;16.464;2023-09-08T05:58:05;17.80;99.10
65044;DHT22;51617;48.158;16.464;2023-09-08T06:00:32;17.90;98.90
65044;DHT22;51617;48.158;16.464;2023-09-08T06:02:58;18.00;98.70
65044;DHT22;51617;48.158;16.464;2023-09-08T06:05:23;18.10;98.50
65044;DHT22;51617;48.158;16.464;2023-09-08T06:07:49;18.20;98.40
65044;DHT22;51617;48.158;16.464;2023-09-08T06:10:14;18.40;98.20
65044;DHT22;51617;48.158;16.464;2023-09-08T06:12:41;18.50;98.00
65044;DHT22;51617;48.158;16.464;2023-09-08T06:15:06;18.60;97.80
65044;DHT22;51617;48.158;16.464;2023-09-08T06:17:32;18.70;97.70
65044;DHT22;51617;48.158;16.464;2023-09-08T06:19:57;18.80;97.60
65044;DHT22;51617;48.158;16.464;2023-09-08T06:22:23;18.90;97.50
65044;DHT22;51617;48.158;16.464;2023-09-08T06:24:48;19.10;97.50
65044;DHT22;51617;48.158;16.464;2023-09-08T06:27:14;19.20;97.30
65044;DHT22;51617;48.158;16.464;2023-09-08T06:29:40;19.30;97.20
65044;DHT22;51617;48.158;16.464;2023-09-08T06:32:07;19.40;97.20
65044;DHT22;51617;48.158;16.464;2023-09-08T06:34:33;19.50;97.20
65044;DHT22;51617;48.158;16.464;2023-09-08T06:37:00;19.60;97.10
65044;DHT22;51617;48.158;16.464;2023-09-08T06:39:26;19.70;97.10
65044;DHT22;51617;48.158;16.464;2023-09-08T06:41:52;19.80;97.10
65044;DHT22;51617;48.158;16.464;2023-09-08T06:44:17;20.00;97.00
65044;DHT22;51617;48.158;16.464;2023-09-08T06:46:43;20.00;96.70
65044;DHT22;51617;48.158;16.464;2023-09-08T06:49:08;20.10;96.70
65044;DHT22;51617;48.158;16.464;2023-09-08T06:51:34;20.20;96.60
65044;DHT22;51617;48.158;16.464;2023-09-08T06:53:59;20.30;96.50
65044;DHT22;51617;48.158;16.464;2023-09-08T06:56:25;20.30;96.40
65044;DHT22;51617;48.158;16.464;2023-09-08T06:58:51;20.40;96.30
65044;DHT22;51617;48.158;16.464;2023-09-08T07:01:17;20.50;96.30
65044;DHT22;51617;48.158;16.464;2023-09-08T07:03:42;20.60;96.20
65044;DHT22;51617;48.158;16.464;2023-09-08T07:06:08;20.70;96.10
65044;DHT22;51617;48.158;16.464;2023-09-08T07:08:34;20.80;95.90
65044;DHT22;51617;48.158;16.464;2023-09-08T07:10:59;20.90;95.80
65044;DHT22;51617;48.158;16.464;2023-09-08T07:13:24;21.00;95.60
65044;DHT22;51617;48.158;16.464;2023-09-08T07:15:50;21.10;95.50
65044;DHT22;51617;48.158;16.464;2023-09-08T07:18:16;21.20;95.20
65044;DHT22;51617;48.158;16.464;2023-09-08T07:20:41;21.40;95.00
65044;DHT22;51617;48.158;16.464;2023-09-08T07:23:11;21.40;94.90
65044;DHT22;51617;48.158;16.464;2023-09-08T07:25:36;21.50;94.80
65044;DHT22;51617;48.158;16.464;2023-09-08T07:28:02;21.60;94.70
65044;DHT22;51617;48.158;16.464;2023-09-08T07:30:27;21.70;94.70
65044;DHT22;51617;48.158;16.464;2023-09-08T07:32:54;21.80;94.60
65044;DHT22;51617;48.158;16.464;2023-09-08T07:35:19;21.80;94.60
65044;DHT22;51617;48.158;16.464;2023-09-08T07:37:45;21.80;94.40
65044;DHT22;51617;48.158;16.464;2023-09-08T07:40:11;21.90;94.50
65044;DHT22;51617;48.158;16.464;2023-09-08T07:42:37;22.00;94.30
65044;DHT22;51617;48.158;16.464;2023-09-08T07:45:02;22.10;94.30
65044;DHT22;51617;48.158;16.464;2023-09-08T07:47:28;22.20;94.40
65044;DHT22;51617;48.158;16.464;2023-09-08T07:50:15;22.30;94.30
65044;DHT22;51617;48.158;16.464;2023-09-08T07:52:39;22.40;94.30
65044;DHT22;51617;48.158;16.464;2023-09-08T07:55:04;22.50;94.10
65044;DHT22;51617;48.158;16.464;2023-09-08T07:57:30;22.70;94.00
65044;DHT22;51617;48.158;16.464;2023-09-08T07:59:55;22.80;93.90
65044;DHT22;51617;48.158;16.464;2023-09-08T08:02:21;22.90;93.70
65044;DHT22;51617;48.158;16.464;2023-09-08T08:04:47;23.00;93.40
65044;DHT22;51617;48.158;16.464;2023-09-08T08:07:12;23.20;93.00
65044;DHT22;51617;48.158;16.464;2023-09-08T08:09:38;23.30;92.80
65044;DHT22;51617;48.158;16.464;2023-09-08T08:12:03;23.50;91.90
65044;DHT22;51617;48.158;16.464;2023-09-08T08:14:29;23.70;91.20
65044;DHT22;51617;48.158;16.464;2023-09-08T08:16:54;23.80;90.50
65044;DHT22;51617;48.158;16.464;2023-09-08T08:19:20;23.90;90.10
65044;DHT22;51617;48.158;16.464;2023-09-08T08:21:45;24.10;89.90
65044;DHT22;51617;48.158;16.464;2023-09-08T08:24:11;24.20;89.30
65044;DHT22;51617;48.158;16.464;2023-09-08T08:26:36;24.30;88.80
65044;DHT22;51617;48.158;16.464;2023-09-08T08:29:02;24.40;88.10
65044;DHT22;51617;48.158;16.464;2023-09-08T08:31:28;24.50;87.80
65044;DHT22;51617;48.158;16.464;2023-09-08T08:33:54;24.60;87.60
65044;DHT22;51617;48.158;16.464;2023-09-08T08:36:19;24.80;87.30
65044;DHT22;51617;48.158;16.464;2023-09-08T08:38:45;24.80;86.70
65044;DHT22;51617;48.158;16.464;2023-09-08T08:41:10;24.90;86.30
65044;DHT22;51617;48.158;16.464;2023-09-08T08:43:36;25.10;86.10
65044;DHT22;51617;48.158;16.464;2023-09-08T08:46:02;24.20;85.40
65044;DHT22;51617;48.158;16.464;2023-09-08T08:48:29;25.20;84.80
65044;DHT22;51617;48.158;16.464;2023-09-08T08:50:56;25.30;84.40
65044;DHT22;51617;48.158;16.464;2023-09-08T08:53:21;25.40;83.90
65044;DHT22;51617;48.158;16.464;2023-09-08T08:55:47;25.50;83.00
65044;DHT22;51617;48.158;16.464;2023-09-08T08:58:14;25.50;83.30
65044;DHT22;51617;48.158;16.464;2023-09-08T09:00:40;25.50;82.50
65044;DHT22;51617;48.158;16.464;2023-09-08T09:03:06;25.50;82.20
65044;DHT22;51617;48.158;16.464;2023-09-08T09:05:32;25.60;82.30
65044;DHT22;51617;48.158;16.464;2023-09-08T09:08:00;25.70;81.60
65044;DHT22;51617;48.158;16.464;2023-09-08T09:10:30;25.80;81.30
65044;DHT22;51617;48.158;16.464;2023-09-08T09:12:55;25.90;81.50
65044;DHT22;51617;48.158;16.464;2023-09-08T09:15:30;26.00;81.30
65044;DHT22;51617;48.158;16.464;2023-09-08T09:18:04;26.10;80.80
65044;DHT22;51617;48.158;16.464;2023-09-08T09:20:30;26.10;79.90
65044;DHT22;51617;48.158;16.464;2023-09-08T09:22:56;26.10;80.00
65044;DHT22;51617;48.158;16.464;2023-09-08T09:25:28;26.10;79.80
65044;DHT22;51617;48.158;16.464;2023-09-08T09:27:54;26.20;79.60
65044;DHT22;51617;48.158;16.464;2023-09-08T09:30:20;26.30;78.60
65044;DHT22;51617;48.158;16.464;2023-09-08T09:32:46;26.30;78.30
65044;DHT22;51617;48.158;16.464;2023-09-08T09:35:14;26.30;78.10
65044;DHT22;51617;48.158;16.464;2023-09-08T09:37:40;26.40;78.00
65044;DHT22;51617;48.158;16.464;2023-09-08T09:40:06;26.50;77.50
65044;DHT22;51617;48.158;16.464;2023-09-08T09:42:32;26.50;77.80
65044;DHT22;51617;48.158;16.464;2023-09-08T09:45:00;26.50;77.70
65044;DHT22;51617;48.158;16.464;2023-09-08T09:47:26;26.50;76.80
65044;DHT22;51617;48.158;16.464;2023-09-08T09:49:51;26.70;76.80
65044;DHT22;51617;48.158;16.464;2023-09-08T09:52:21;26.80;76.10
65044;DHT22;51617;48.158;16.464;2023-09-08T09:54:48;26.90;76.20
65044;DHT22;51617;48.158;16.464;2023-09-08T09:57:16;26.90;75.30
65044;DHT22;51617;48.158;16.464;2023-09-08T09:59:41;27.00;74.60
65044;DHT22;51617;48.158;16.464;2023-09-08T10:02:08;27.00;72.60
65044;DHT22;51617;48.158;16.464;2023-09-08T10:04:37;27.10;73.80
65044;DHT22;51617;48.158;16.464;2023-09-08T10:07:02;27.10;73.00
65044;DHT22;51617;48.158;16.464;2023-09-08T10:09:28;27.20;73.10
65044;DHT22;51617;48.158;16.464;2023-09-08T10:11:54;27.30;72.40
65044;DHT22;51617;48.158;16.464;2023-09-08T10:14:20;27.40;71.80
65044;DHT22;51617;48.158;16.464;2023-09-08T10:16:46;27.50;72.20
65044;DHT22;51617;48.158;16.464;2023-09-08T10:19:17;27.50;71.40
65044;DHT22;51617;48.158;16.464;2023-09-08T10:21:45;27.50;72.10
65044;DHT22;51617;48.158;16.464;2023-09-08T10:26:37;27.60;71.00
65044;DHT22;51617;48.158;16.464;2023-09-08T10:29:04;27.70;70.20
65044;DHT22;51617;48.158;16.464;2023-09-08T10:31:30;27.70;69.60
65044;DHT22;51617;48.158;16.464;2023-09-08T10:33:56;27.80;70.40
65044;DHT22;51617;48.158;16.464;2023-09-08T10:36:25;27.80;70.00
65044;DHT22;51617;48.158;16.464;2023-09-08T10:38:50;27.90;69.60
65044;DHT22;51617;48.158;16.464;2023-09-08T10:43:46;28.10;68.10
65044;DHT22;51617;48.158;16.464;2023-09-08T10:46:21;28.10;67.00
65044;DHT22;51617;48.158;16.464;2023-09-08T10:48:46;28.10;66.80
65044;DHT22;51617;48.158;16.464;2023-09-08T10:51:12;28.20;67.20
65044;DHT22;51617;48.158;16.464;2023-09-08T10:53:39;28.20;67.00
65044;DHT22;51617;48.158;16.464;2023-09-08T10:56:04;28.20;66.80
65044;DHT22;51617;48.158;16.464;2023-09-08T10:58:34;28.30;66.60
65044;DHT22;51617;48.158;16.464;2023-09-08T11:01:02;28.30;66.50
65044;DHT22;51617;48.158;16.464;2023-09-08T11:06:07;28.30;66.70
65044;DHT22;51617;48.158;16.464;2023-09-08T11:08:33;28.40;66.30
65044;DHT22;51617;48.158;16.464;2023-09-08T11:11:00;28.40;66.10
65044;DHT22;51617;48.158;16.464;2023-09-08T11:13:26;28.30;66.20
65044;DHT22;51617;48.158;16.464;2023-09-08T11:15:53;28.40;66.50
65044;DHT22;51617;48.158;16.464;2023-09-08T11:18:31;28.40;66.30
65044;DHT22;51617;48.158;16.464;2023-09-08T11:20:57;28.50;66.30
65044;DHT22;51617;48.158;16.464;2023-09-08T11:23:23;28.60;65.90
65044;DHT22;51617;48.158;16.464;2023-09-08T11:25:49;28.50;65.90
65044;DHT22;51617;48.158;16.464;2023-09-08T11:28:15;28.60;65.20
65044;DHT22;51617;48.158;16.464;2023-09-08T11:30:41;28.60;65.30
65044;DHT22;51617;48.158;16.464;2023-09-08T11:33:13;28.60;65.80
65044;DHT22;51617;48.158;16.464;2023-09-08T11:35:39;28.60;65.60
65044;DHT22;51617;48.158;16.464;2023-09-08T11:38:04;28.50;65.40
65044;DHT22;51617;48.158;16.464;2023-09-08T11:40:30;28.50;65.50
65044;DHT22;51617;48.158;16.464;2023-09-08T11:42:56;28.60;65.10
65044;DHT22;51617;48.158;16.464;2023-09-08T11:45:22;28.70;64.80
65044;DHT22;51617;48.158;16.464;2023-09-08T11:47:48;28.70;64.90
65044;DHT22;51617;48.158;16.464;2023-09-08T11:50:18;28.70;63.70
65044;DHT22;51617;48.158;16.464;2023-09-08T11:52:44;28.80;63.60
65044;DHT22;51617;48.158;16.464;2023-09-08T11:55:11;28.80;63.10
65044;DHT22;51617;48.158;16.464;2023-09-08T11:57:36;28.90;62.80
65044;DHT22;51617;48.158;16.464;2023-09-08T12:00:03;29.00;61.60
65044;DHT22;51617;48.158;16.464;2023-09-08T12:02:34;28.90;61.70
65044;DHT22;51617;48.158;16.464;2023-09-08T12:04:59;29.00;62.40
65044;DHT22;51617;48.158;16.464;2023-09-08T12:07:25;29.10;61.50
65044;DHT22;51617;48.158;16.464;2023-09-08T12:09:50;29.10;61.70
65044;DHT22;51617;48.158;16.464;2023-09-08T12:12:16;29.20;61.60
65044;DHT22;51617;48.158;16.464;2023-09-08T12:14:41;29.20;61.60
65044;DHT22;51617;48.158;16.464;2023-09-08T12:17:07;29.20;61.90
65044;DHT22;51617;48.158;16.464;2023-09-08T12:19:33;29.30;61.10
65044;DHT22;51617;48.158;16.464;2023-09-08T12:22:01;29.30;61.00
65044;DHT22;51617;48.158;16.464;2023-09-08T12:24:47;29.30;60.40
65044;DHT22;51617;48.158;16.464;2023-09-08T12:27:14;29.30;61.00
65044;DHT22;51617;48.158;16.464;2023-09-08T12:29:39;29.40;59.90
65044;DHT22;51617;48.158;16.464;2023-09-08T12:32:05;29.50;59.90
65044;DHT22;51617;48.158;16.464;2023-09-08T12:34:31;29.40;59.90
65044;DHT22;51617;48.158;16.464;2023-09-08T12:36:56;29.50;60.60
65044;DHT22;51617;48.158;16.464;2023-09-08T12:39:21;29.50;60.40
65044;DHT22;51617;48.158;16.464;2023-09-08T12:41:47;29.50;59.80
65044;DHT22;51617;48.158;16.464;2023-09-08T12:44:12;29.50;59.60
65044;DHT22;51617;48.158;16.464;2023-09-08T12:46:38;29.40;59.00
65044;DHT22;51617;48.158;16.464;2023-09-08T12:49:03;29.50;59.10
65044;DHT22;51617;48.158;16.464;2023-09-08T12:51:29;29.60;59.50
65044;DHT22;51617;48.158;16.464;2023-09-08T12:53:54;29.60;59.60
65044;DHT22;51617;48.158;16.464;2023-09-08T12:56:20;29.50;59.30
65044;DHT22;51617;48.158;16.464;2023-09-08T12:58:45;29.50;59.30
65044;DHT22;51617;48.158;16.464;2023-09-08T13:01:11;29.40;59.00
65044;DHT22;51617;48.158;16.464;2023-09-08T13:03:37;29.50;59.60
65044;DHT22;51617;48.158;16.464;2023-09-08T13:06:03;29.60;59.60
65044;DHT22;51617;48.158;16.464;2023-09-08T13:08:29;29.70;59.30
65044;DHT22;51617;48.158;16.464;2023-09-08T13:10:55;29.90;59.00
65044;DHT22;51617;48.158;16.464;2023-09-08T13:13:20;29.90;58.90
65044;DHT22;51617;48.158;16.464;2023-09-08T13:15:46;29.90;58.80
65044;DHT22;51617;48.158;16.464;2023-09-08T13:18:12;29.90;57.70
65044;DHT22;51617;48.158;16.464;2023-09-08T13:20:37;29.90;58.10
65044;DHT22;51617;48.158;16.464;2023-09-08T13:23:03;30.00;57.80
65044;DHT22;51617;48.158;16.464;2023-09-08T13:25:29;30.00;58.00
65044;DHT22;51617;48.158;16.464;2023-09-08T13:27:55;30.10;57.40
65044;DHT22;51617;48.158;16.464;2023-09-08T13:30:21;30.10;57.50
65044;DHT22;51617;48.158;16.464;2023-09-08T13:32:52;30.20;57.40
65044;DHT22;51617;48.158;16.464;2023-09-08T13:35:18;30.20;58.00
65044;DHT22;51617;48.158;16.464;2023-09-08T13:37:43;30.30;56.90
65044;DHT22;51617;48.158;16.464;2023-09-08T13:40:09;30.40;57.30
65044;DHT22;51617;48.158;16.464;2023-09-08T13:42:35;30.30;56.80
65044;DHT22;51617;48.158;16.464;2023-09-08T13:45:01;30.30;56.70
65044;DHT22;51617;48.158;16.464;2023-09-08T13:47:28;30.20;56.80
65044;DHT22;51617;48.158;16.464;2023-09-08T13:49:54;30.40;56.80
65044;DHT22;51617;48.158;16.464;2023-09-08T13:52:20;30.40;56.00
65044;DHT22;51617;48.158;16.464;2023-09-08T13:54:46;30.30;56.30
65044;DHT22;51617;48.158;16.464;2023-09-08T13:57:11;30.30;56.00
65044;DHT22;51617;48.158;16.464;2023-09-08T13:59:38;30.30;55.50
65044;DHT22;51617;48.158;16.464;2023-09-08T14:02:03;30.40;55.50
65044;DHT22;51617;48.158;16.464;2023-09-08T14:04:29;30.40;54.50
65044;DHT22;51617;48.158;16.464;2023-09-08T14:06:55;30.40;55.00
65044;DHT22;51617;48.158;16.464;2023-09-08T14:09:22;30.50;54.80
65044;DHT22;51617;48.158;16.464;2023-09-08T14:11:48;30.50;55.10
65044;DHT22;51617;48.158;16.464;2023-09-08T14:14:14;30.60;55.30
65044;DHT22;51617;48.158;16.464;2023-09-08T14:16:40;30.60;54.70
65044;DHT22;51617;48.158;16.464;2023-09-08T14:19:06;30.60;54.80
65044;DHT22;51617;48.158;16.464;2023-09-08T14:21:32;30.60;54.50
65044;DHT22;51617;48.158;16.464;2023-09-08T14:23:58;30.70;54.70
65044;DHT22;51617;48.158;16.464;2023-09-08T14:26:24;30.60;54.60
65044;DHT22;51617;48.158;16.464;2023-09-08T14:28:51;30.60;54.60
65044;DHT22;51617;48.158;16.464;2023-09-08T14:31:18;30.70;54.90
65044;DHT22;51617;48.158;16.464;2023-09-08T14:33:44;30.70;54.30
65044;DHT22;51617;48.158;16.464;2023-09-08T14:36:10;30.90;54.50
65044;DHT22;51617;48.158;16.464;2023-09-08T14:38:36;30.80;54.10
65044;DHT22;51617;48.158;16.464;2023-09-08T14:41:03;30.80;54.20
65044;DHT22;51617;48.158;16.464;2023-09-08T14:43:29;30.90;54.20
65044;DHT22;51617;48.158;16.464;2023-09-08T14:45:55;30.90;53.80
65044;DHT22;51617;48.158;16.464;2023-09-08T14:48:24;30.80;53.60
65044;DHT22;51617;48.158;16.464;2023-09-08T14:50:50;30.80;53.90
65044;DHT22;51617;48.158;16.464;2023-09-08T14:53:16;30.80;53.90
65044;DHT22;51617;48.158;16.464;2023-09-08T14:55:42;30.80;54.30
65044;DHT22;51617;48.158;16.464;2023-09-08T14:58:10;30.80;54.40
65044;DHT22;51617;48.158;16.464;2023-09-08T15:00:38;30.80;54.60
65044;DHT22;51617;48.158;16.464;2023-09-08T15:03:04;30.80;54.80
65044;DHT22;51617;48.158;16.464;2023-09-08T15:05:33;30.70;54.40
65044;DHT22;51617;48.158;16.464;2023-09-08T15:07:59;30.70;54.40
65044;DHT22;51617;48.158;16.464;2023-09-08T15:10:25;30.70;54.40
65044;DHT22;51617;48.158;16.464;2023-09-08T15:12:51;30.80;55.00
65044;DHT22;51617;48.158;16.464;2023-09-08T15:15:17;30.80;55.30
65044;DHT22;51617;48.158;16.464;2023-09-08T15:17:54;30.80;55.00
65044;DHT22;51617;48.158;16.464;2023-09-08T15:20:23;31.00;55.00